Time;durP1;ratioP1;P1;durP2;ratioP2;P2;SDS_P1;SDS_P2;PMS_P1;PMS_P2;Temp;Humidity;BMP_temperature;BMP_pressure;BME280_temperature;BME280_humidity;BME280_pressure;Samples;Min_cycle;Max_cycle;Signal;HPM_P1;HPM_P2
2023/04/02 00:00:03;;;;;;;8.20;4.65;;;;;;;7.36;77.96;99341.88;4994546;28;20058;-81
2023/04/02 00:02:31;;;;;;;6.45;4.75;;;;;;;7.38;78.94;99358.38;4977085;28;20062;-82
2023/04/02 00:05:16;;;;;;;7.28;4.75;;;;;;;7.33;78.12;99356.91;4994085;28;20062;-83
2023/04/02 00:07:47;;;;;;;9.27;4.78;;;;;;;7.35;78.83;99350.66;4992681;28;20051;-80
2023/04/02 00:10:48;;;;;;;5.25;4.32;;;;;;;7.30;77.58;99360.50;4994506;28;20077;-81
2023/04/02 00:13:14;;;;;;;6.72;4.88;;;;;;;7.33;79.08;99356.91;4961933;28;20392;-81
2023/04/02 00:15:50;;;;;;;5.38;4.28;;;;;;;7.28;78.16;99367.59;4993686;28;20522;-81
2023/04/02 00:18:20;;;;;;;6.28;4.55;;;;;;;7.28;79.01;99373.69;4993936;28;20054;-81
2023/04/02 00:21:10;;;;;;;6.78;4.93;;;;;;;7.27;78.94;99385.09;4993281;28;20058;-81
2023/04/02 00:23:42;;;;;;;7.57;5.72;;;;;;;7.27;78.80;99376.38;4986841;28;20058;-81
2023/04/02 00:26:29;;;;;;;7.88;4.80;;;;;;;7.25;77.90;99383.47;4994150;28;20058;-83
2023/04/02 00:28:57;;;;;;;8.68;5.30;;;;;;;7.28;79.21;99388.53;4993697;28;20113;-80
2023/04/02 00:31:23;;;;;;;12.93;5.38;;;;;;;7.27;78.82;99392.94;4976720;28;20136;-81
2023/04/02 00:33:51;;;;;;;7.53;5.32;;;;;;;7.24;78.33;99398.31;4992923;28;20065;-80
2023/04/02 00:36:20;;;;;;;6.95;5.47;;;;;;;7.21;78.33;99397.63;4993291;28;20120;-80
2023/04/02 00:38:47;;;;;;;9.88;5.22;;;;;;;7.16;78.33;99406.56;4993413;28;20062;-82
2023/04/02 00:41:21;;;;;;;7.38;5.28;;;;;;;7.12;77.73;99405.00;4993896;28;20104;-83
2023/04/02 00:43:49;;;;;;;8.82;5.38;;;;;;;7.10;78.25;99408.63;4976211;28;20503;-82
2023/04/02 00:46:23;;;;;;;9.57;4.93;;;;;;;7.06;78.12;99415.75;4976155;28;20487;-80
2023/04/02 00:49:01;;;;;;;10.73;5.80;;;;;;;7.00;77.50;99410.81;4976066;28;20146;-82
2023/04/02 00:51:50;;;;;;;8.25;5.43;;;;;;;6.95;77.06;99420.66;4997457;28;20117;-82
2023/04/02 00:54:20;;;;;;;9.10;5.47;;;;;;;6.96;78.37;99431.06;4988637;28;20054;-81
2023/04/02 00:56:50;;;;;;;7.85;5.32;;;;;;;6.94;78.53;99434.66;4991272;28;20054;-81
2023/04/02 00:59:17;;;;;;;6.57;4.80;;;;;;;6.93;78.58;99441.66;4993310;28;20130;-80
2023/04/02 01:01:43;;;;;;;8.80;5.47;;;;;;;6.90;78.75;99445.28;4992200;28;20058;-82
2023/04/02 01:04:30;;;;;;;7.65;5.28;;;;;;;6.85;77.19;99451.63;4993489;28;20050;-80
2023/04/02 01:06:57;;;;;;;9.35;5.50;;;;;;;6.86;78.46;99454.19;4992694;28;20061;-83
2023/04/02 01:09:26;;;;;;;9.35;5.50;;;;;;;6.83;78.80;99456.94;4992210;28;20061;-81
2023/04/02 01:12:19;;;;;;;8.52;5.88;;;;;;;6.79;77.71;99450.16;4993218;28;20130;-83
2023/04/02 01:15:14;;;;;;;9.13;5.60;;;;;;;6.76;77.55;99456.38;4971492;28;20062;-81
2023/04/02 01:17:53;;;;;;;9.70;5.40;;;;;;;6.76;78.06;99460.75;4992917;28;20046;-80
2023/04/02 01:20:41;;;;;;;9.93;6.18;;;;;;;6.71;77.24;99460.13;4993348;28;20062;-80
2023/04/02 01:23:17;;;;;;;9.75;5.07;;;;;;;6.72;77.59;99467.03;4993177;28;20058;-80
2023/04/02 01:25:55;;;;;;;8.30;5.43;;;;;;;6.67;77.29;99469.03;4992932;28;20614;-80
2023/04/02 01:28:30;;;;;;;11.43;5.32;;;;;;;6.64;77.34;99478.72;4991409;28;20104;-82
2023/04/02 01:31:01;;;;;;;9.57;5.20;;;;;;;6.60;78.00;99489.38;4991864;28;20415;-81
2023/04/02 01:33:32;;;;;;;10.73;6.00;;;;;;;6.57;78.01;99498.22;4992392;28;20062;-80
2023/04/02 01:36:44;;;;;;;12.88;5.28;;;;;;;6.52;76.70;99510.66;4992374;28;20066;-80
2023/04/02 01:39:32;;;;;;;9.80;5.35;;;;;;;6.52;77.52;99513.25;4992683;28;20133;-82
2023/04/02 01:42:08;;;;;;;7.75;4.90;;;;;;;6.48;76.53;99524.78;4991511;28;20081;-85
2023/04/02 01:44:51;;;;;;;8.98;5.30;;;;;;;6.43;76.40;99529.34;4992857;28;20117;-80
2023/04/02 01:47:23;;;;;;;9.75;5.15;;;;;;;6.43;77.43;99531.97;4991255;28;20050;-80
2023/04/02 01:49:55;;;;;;;8.30;4.95;;;;;;;6.41;77.26;99536.41;4992473;28;20054;-80
2023/04/02 01:52:39;;;;;;;4.80;3.35;;;;;;;6.37;76.51;99538.31;4992630;28;20050;-80
2023/04/02 01:55:09;;;;;;;8.57;5.38;;;;;;;6.36;77.76;99555.75;4992172;28;20046;-81
2023/04/02 01:57:36;;;;;;;7.80;5.07;;;;;;;6.33;77.69;99545.44;4990868;28;20054;-82
2023/04/02 02:00:08;;;;;;;12.80;4.97;;;;;;;6.30;77.63;99550.78;4992501;28;20054;-80
2023/04/02 02:02:35;;;;;;;6.63;4.30;;;;;;;6.28;77.66;99546.56;4992357;28;20073;-80
2023/04/02 02:05:03;;;;;;;6.90;4.03;;;;;;;6.23;77.65;99554.56;4990804;28;20146;-81
2023/04/02 02:07:29;;;;;;;8.52;4.63;;;;;;;6.20;77.65;99549.50;4991871;28;20050;-85
2023/04/02 02:09:56;;;;;;;5.57;4.13;;;;;;;6.17;77.54;99554.84;4992444;28;20058;-81
2023/04/02 02:12:22;;;;;;;7.63;4.45;;;;;;;6.13;77.65;99561.94;4992196;28;20462;-80
2023/04/02 02:14:51;;;;;;;7.60;4.30;;;;;;;6.10;77.29;99557.69;4991925;28;20117;-80
2023/04/02 02:17:29;;;;;;;10.05;4.00;;;;;;;6.05;76.03;99572.72;4991595;28;20131;-81
2023/04/02 02:19:59;;;;;;;9.98;4.03;;;;;;;6.05;77.05;99564.88;4991832;28;20388;-81
2023/04/02 02:22:27;;;;;;;9.20;3.72;;;;;;;6.05;77.45;99584.97;4991839;28;20499;-81
2023/04/02 02:24:56;;;;;;;6.47;3.88;;;;;;;6.02;77.09;99582.44;4991539;28;20051;-82
2023/04/02 02:27:22;;;;;;;5.55;3.15;;;;;;;6.00;76.82;99582.50;4991620;28;20545;-81
2023/04/02 02:29:53;;;;;;;8.77;3.60;;;;;;;5.94;75.72;99583.59;4991799;28;20070;-81
2023/04/02 02:32:22;;;;;;;7.47;3.42;;;;;;;5.92;76.29;99587.16;4990567;28;20058;-81
2023/04/02 02:34:59;;;;;;;8.07;4.13;;;;;;;5.87;75.76;99600.44;4991755;28;20054;-84
2023/04/02 02:37:29;;;;;;;6.13;3.47;;;;;;;5.83;76.32;99594.47;4991794;28;20054;-82
2023/04/02 02:39:59;;;;;;;6.97;3.25;;;;;;;5.79;76.78;99605.94;4991952;28;20066;-81
2023/04/02 02:42:35;;;;;;;8.52;3.80;;;;;;;5.78;76.92;99617.31;4991955;28;20069;-82
2023/04/02 02:45:06;;;;;;;10.48;4.20;;;;;;;5.74;76.79;99613.13;4989257;28;20073;-80
2023/04/02 02:47:37;;;;;;;5.82;3.13;;;;;;;5.73;76.61;99624.47;4991495;28;20097;-81
2023/04/02 02:50:11;;;;;;;10.00;3.28;;;;;;;5.72;76.32;99628.00;4990629;28;20089;-82
2023/04/02 02:52:38;;;;;;;7.22;3.85;;;;;;;5.70;76.96;99628.06;4990651;28;20058;-82
2023/04/02 02:55:09;;;;;;;9.93;3.72;;;;;;;5.67;75.48;99650.81;4991208;28;20054;-81
2023/04/02 02:57:47;;;;;;;5.43;3.28;;;;;;;5.65;76.36;99644.81;4990992;28;20051;-81
2023/04/02 03:00:18;;;;;;;8.23;3.60;;;;;;;5.62;76.63;99648.41;4991706;28;20152;-82
2023/04/02 03:02:46;;;;;;;7.43;3.30;;;;;;;5.58;76.75;99660.69;4990196;28;20491;-85
2023/04/02 03:05:20;;;;;;;6.68;3.03;;;;;;;5.55;76.14;99662.59;4991195;28;20534;-84
2023/04/02 03:07:51;;;;;;;7.13;3.05;;;;;;;5.54;76.72;99669.59;4991321;28;20058;-80
2023/04/02 03:10:35;;;;;;;7.57;3.22;;;;;;;5.51;75.24;99674.91;4990279;28;20059;-82
2023/04/02 03:13:11;;;;;;;7.15;3.30;;;;;;;5.50;75.10;99686.28;4990585;28;20062;-81
2023/04/02 03:15:57;;;;;;;9.40;3.10;;;;;;;5.46;75.33;99689.91;4989924;28;20470;-81
2023/04/02 03:18:27;;;;;;;13.68;2.78;;;;;;;5.48;77.18;99695.91;4989857;28;20145;-82
2023/04/02 03:21:04;;;;;;;9.77;3.53;;;;;;;5.44;76.17;99694.31;4991556;28;20495;-83
2023/04/02 03:23:44;;;;;;;6.47;2.95;;;;;;;5.39;74.92;99704.09;4991507;28;20054;-81
2023/04/02 03:26:17;;;;;;;10.63;2.60;;;;;;;5.38;75.40;99711.06;4991092;28;20054;-80
2023/04/02 03:28:53;;;;;;;5.63;2.53;;;;;;;5.35;75.47;99712.00;4991344;28;20062;-80
2023/04/02 03:31:26;;;;;;;6.40;2.47;;;;;;;5.32;75.36;99722.59;4991219;28;20057;-81
2023/04/02 03:34:01;;;;;;;6.43;2.50;;;;;;;5.28;75.50;99726.22;4991502;28;20133;-80
2023/04/02 03:36:31;;;;;;;8.55;2.38;;;;;;;5.28;76.25;99727.97;4990849;28;20054;-81
2023/04/02 03:39:27;;;;;;;6.57;2.40;;;;;;;5.21;75.03;99735.16;4991348;28;20101;-81
2023/04/02 03:42:14;;;;;;;9.73;2.92;;;;;;;5.19;74.67;99739.56;4991616;28;20838;-81
2023/04/02 03:47:25;;;;;;;8.73;2.40;;;;;;;5.18;75.60;99750.91;4996756;23;20109;-81
2023/04/02 03:49:57;;;;;;;5.13;2.13;;;;;;;5.17;76.18;99754.44;4988833;28;20050;-81
2023/04/02 03:52:28;;;;;;;5.93;2.17;;;;;;;5.16;76.17;99763.19;4990738;28;20054;-79
2023/04/02 03:55:00;;;;;;;5.40;2.13;;;;;;;5.14;76.13;99775.41;4988759;28;20062;-79
2023/04/02 03:57:46;;;;;;;4.40;2.00;;;;;;;5.10;75.48;99772.06;4993140;28;20054;-81
2023/04/02 04:00:19;;;;;;;7.15;2.20;;;;;;;5.11;76.55;99776.38;4993879;28;20117;-79
2023/04/02 04:02:56;;;;;;;4.32;2.00;;;;;;;5.09;75.73;99781.63;4993396;28;20478;-81
2023/04/02 04:05:36;;;;;;;11.18;2.70;;;;;;;5.07;75.06;99782.59;4992173;28;20165;-78
2023/04/02 04:08:12;;;;;;;8.38;2.97;;;;;;;5.08;76.10;99771.25;4993516;28;20503;-82
2023/04/02 04:10:41;;;;;;;6.85;2.30;;;;;;;5.07;76.55;99780.84;4993533;28;20077;-81
2023/04/02 04:13:13;;;;;;;5.63;2.05;;;;;;;5.04;76.06;99801.81;4993759;28;20100;-82
2023/04/02 04:15:54;;;;;;;7.75;2.95;;;;;;;4.99;74.67;99798.50;4992056;28;20070;-81
2023/04/02 04:18:39;;;;;;;5.57;2.60;;;;;;;4.95;74.19;99810.81;4993495;28;20082;-79
2023/04/02 04:21:15;;;;;;;2.78;1.70;;;;;;;4.93;74.91;99824.78;4993462;28;20054;-81
2023/04/02 04:23:49;;;;;;;7.88;2.10;;;;;;;4.90;75.15;99827.50;4992518;28;20062;-81
2023/04/02 04:26:29;;;;;;;9.95;2.35;;;;;;;4.85;74.61;99819.00;4992712;28;20505;-81
2023/04/02 04:29:15;;;;;;;8.23;2.25;;;;;;;4.80;74.71;99830.41;4993501;28;20362;-81
2023/04/02 04:31:48;;;;;;;5.95;2.20;;;;;;;4.77;75.22;99843.53;4993000;28;20051;-81
2023/04/02 04:34:28;;;;;;;;;;;;;;;4.76;74.45;99835.78;4993772;28;20431;-81
2023/04/02 04:37:00;;;;;;;5.38;2.10;;;;;;;4.74;75.91;99848.84;4992180;28;19980;-81
2023/04/02 04:39:48;;;;;;;5.05;1.92;;;;;;;4.69;74.50;99864.66;4993232;28;20056;-81
2023/04/02 04:42:21;;;;;;;6.68;2.33;;;;;;;4.67;75.17;99866.44;4992160;28;20101;-81
2023/04/02 04:44:58;;;;;;;7.35;2.33;;;;;;;4.64;75.35;99870.91;4993106;28;20455;-78
2023/04/02 04:47:34;;;;;;;6.05;2.17;;;;;;;4.60;75.21;99875.34;4992852;28;20054;-79
2023/04/02 04:50:19;;;;;;;7.72;1.92;;;;;;;4.60;75.88;99877.13;4993271;28;20459;-81
2023/04/02 04:52:45;;;;;;;9.82;2.55;;;;;;;4.59;76.70;99883.25;4992769;28;20050;-82
2023/04/02 04:55:41;;;;;;;5.53;1.70;;;;;;;4.53;74.61;99895.53;4992898;28;20058;-81
2023/04/02 04:58:22;;;;;;;6.22;2.35;;;;;;;4.52;75.09;99899.03;4990916;28;20055;-79
2023/04/02 05:01:09;;;;;;;4.95;1.92;;;;;;;4.52;75.62;99909.47;4992784;28;20496;-81
2023/04/02 05:03:45;;;;;;;6.65;2.15;;;;;;;4.55;77.14;99908.53;4991717;28;20085;-78
2023/04/02 05:06:24;;;;;;;6.05;1.80;;;;;;;4.52;75.25;99924.28;5007439;28;20093;-81
2023/04/02 05:08:55;;;;;;;4.07;2.00;;;;;;;4.53;76.22;99926.81;4991186;28;20061;-81
2023/04/02 05:11:32;;;;;;;5.00;2.13;;;;;;;4.52;75.56;99930.31;4992453;28;20053;-82
2023/04/02 05:14:15;;;;;;;7.80;2.05;;;;;;;4.51;75.12;99931.22;4992729;28;20471;-81
2023/04/02 05:16:48;;;;;;;;;;;;;;;4.54;74.69;99938.97;4992420;28;20054;-81
2023/04/02 05:19:22;;;;;;;3.42;1.67;;;;;;;4.56;76.15;99944.97;4992649;28;20617;-81
2023/04/02 05:21:58;;;;;;;6.28;2.22;;;;;;;4.55;75.21;99961.53;4992422;28;20802;-81
2023/04/02 05:24:50;;;;;;;8.90;2.53;;;;;;;4.52;74.65;99974.66;4990440;28;20055;-81
2023/04/02 05:27:23;;;;;;;5.63;2.03;;;;;;;4.54;75.49;99979.81;4988017;28;20050;-81
2023/04/02 05:30:02;;;;;;;4.70;1.83;;;;;;;4.52;76.30;99981.63;4994452;28;20073;-82
2023/04/02 05:32:34;;;;;;;4.85;1.80;;;;;;;4.53;76.74;99991.16;4999448;28;20050;-81
2023/04/02 05:35:04;;;;;;;6.88;2.00;;;;;;;4.54;77.04;100000.69;4990426;28;20092;-82
2023/04/02 05:37:32;;;;;;;6.10;1.80;;;;;;;4.53;76.86;100004.19;4993364;28;20065;-82
2023/04/02 05:40:12;;;;;;;10.25;2.42;;;;;;;4.51;75.48;100006.84;4992302;28;20859;-79
2023/04/02 05:42:42;;;;;;;4.55;1.65;;;;;;;4.54;77.17;100011.97;5000266;28;20113;-80
2023/04/02 05:45:30;;;;;;;5.07;1.98;;;;;;;4.51;74.68;100019.88;5002128;28;20051;-81
2023/04/02 05:48:01;;;;;;;5.57;1.85;;;;;;;4.54;76.78;100017.19;4995070;28;20054;-80
2023/04/02 05:50:42;;;;;;;2.55;1.52;;;;;;;4.51;74.88;100019.00;5000019;28;20113;-80
2023/04/02 05:53:26;;;;;;;4.55;1.70;;;;;;;4.54;76.07;100035.44;4972072;28;20491;-81
2023/04/02 05:56:02;;;;;;;5.72;2.03;;;;;;;4.54;75.32;100034.56;4972223;28;20142;-80
2023/04/02 05:58:40;;;;;;;4.00;1.67;;;;;;;4.54;75.17;100034.56;4970655;28;20176;-81
2023/04/02 06:01:19;;;;;;;4.33;1.90;;;;;;;4.56;76.02;100051.00;4972418;28;20054;-81
2023/04/02 06:03:46;;;;;;;5.30;1.88;;;;;;;4.60;77.22;100049.19;4971117;28;20058;-81
2023/04/02 06:06:20;;;;;;;4.70;1.92;;;;;;;4.59;76.19;100057.91;4970862;28;20054;-81
2023/04/02 06:08:55;;;;;;;7.40;1.88;;;;;;;4.61;76.12;100053.50;4971814;28;20051;-82
2023/04/02 06:11:35;;;;;;;6.63;1.85;;;;;;;4.61;76.28;100062.19;4990115;28;20043;-81
2023/04/02 06:14:03;;;;;;;3.10;2.00;;;;;;;4.65;77.21;100071.66;4999223;28;20463;-81
2023/04/02 06:16:30;;;;;;;3.75;1.70;;;;;;;4.65;77.22;100071.66;5001498;28;20053;-80
2023/04/02 06:18:57;;;;;;;4.93;2.08;;;;;;;4.66;77.08;100078.56;5002317;28;20426;-80
2023/04/02 06:21:24;;;;;;;8.23;2.33;;;;;;;4.66;76.87;100075.09;5011200;28;20461;-81
2023/04/02 06:23:59;;;;;;;5.70;1.50;;;;;;;4.65;75.39;100092.50;5010819;28;20054;-81
2023/04/02 06:26:32;;;;;;;6.60;1.52;;;;;;;4.66;76.04;100085.50;5001622;28;20045;-80
2023/04/02 06:29:17;;;;;;;6.93;2.20;;;;;;;4.68;76.57;100102.00;4991097;28;20133;-78
2023/04/02 06:31:49;;;;;;;4.22;1.65;;;;;;;4.72;76.55;100107.97;4991309;28;20117;-80
2023/04/02 06:34:27;;;;;;;5.88;2.17;;;;;;;4.72;75.19;100102.75;4990995;28;20104;-80
2023/04/02 06:36:57;;;;;;;4.82;1.80;;;;;;;4.77;77.01;100117.38;4989582;28;20121;-80
2023/04/02 06:39:26;;;;;;;4.53;1.88;;;;;;;4.80;77.23;100111.22;4990929;28;20104;-80
2023/04/02 06:42:12;;;;;;;7.57;1.58;;;;;;;4.79;75.29;100114.75;4990161;28;20058;-81
2023/04/02 06:44:39;;;;;;;5.53;1.95;;;;;;;4.85;77.46;100124.16;4989400;28;20062;-78
2023/04/02 06:47:10;;;;;;;5.60;2.45;;;;;;;4.86;75.99;100131.06;4972922;28;20090;-80
2023/04/02 06:49:45;;;;;;;8.75;1.90;;;;;;;4.87;75.57;100138.88;4989617;28;20050;-80
2023/04/02 06:52:36;;;;;;;5.53;2.08;;;;;;;4.88;74.64;100143.19;4991043;28;20562;-80
2023/04/02 06:55:31;;;;;;;4.97;2.30;;;;;;;4.91;74.79;100147.44;4990355;28;20392;-80
2023/04/02 06:57:58;;;;;;;6.00;1.75;;;;;;;4.97;77.43;100160.31;4964075;28;20066;-78
2023/04/02 07:00:41;;;;;;;4.10;1.40;;;;;;;4.94;74.54;100169.09;4990757;28;20054;-80
2023/04/02 07:03:24;;;;;;;;;;;;;;;5.00;74.53;100177.63;4990173;28;20065;-78
2023/04/02 07:05:52;;;;;;;5.82;1.52;;;;;;;5.06;77.40;100175.75;4990262;28;19926;-80
2023/04/02 07:08:20;;;;;;;4.65;1.55;;;;;;;5.07;77.37;100179.19;4989704;28;20058;-78
2023/04/02 07:10:46;;;;;;;7.28;2.10;;;;;;;5.09;77.46;100196.50;4992818;28;20055;-79
2023/04/02 07:13:15;;;;;;;5.72;1.67;;;;;;;5.08;76.89;100194.81;4989341;28;20050;-80
2023/04/02 07:15:44;;;;;;;7.78;2.22;;;;;;;5.12;76.52;100207.78;4999515;28;20046;-77
2023/04/02 07:18:32;;;;;;;4.05;1.70;;;;;;;5.11;74.64;100212.13;5009985;28;20731;-77
2023/04/02 07:20:59;;;;;;;4.70;1.70;;;;;;;5.16;77.03;100218.09;5000618;28;20112;-78
2023/04/02 07:23:26;;;;;;;2.45;1.60;;;;;;;5.18;77.37;100223.25;4998143;28;20054;-78
2023/04/02 07:25:54;;;;;;;3.83;1.50;;;;;;;5.21;77.05;100237.06;4993543;28;20065;-78
2023/04/02 07:28:20;;;;;;;4.18;1.60;;;;;;;5.24;77.21;100248.34;4985616;28;20046;-80
2023/04/02 07:30:49;;;;;;;6.45;1.70;;;;;;;5.25;76.84;100250.06;4991775;28;20062;-78
2023/04/02 07:33:20;;;;;;;3.25;1.70;;;;;;;5.27;77.02;100256.09;5004069;28;20058;-80
2023/04/02 07:35:48;;;;;;;3.33;1.30;;;;;;;5.29;76.61;100263.00;4993725;28;20105;-78
2023/04/02 07:38:15;;;;;;;4.05;1.55;;;;;;;5.30;76.59;100256.88;4994289;28;20061;-77
2023/04/02 07:40:43;;;;;;;8.43;1.65;;;;;;;5.30;76.52;100264.69;4994440;28;20058;-78
2023/04/02 07:43:10;;;;;;;6.13;1.52;;;;;;;5.32;76.50;100265.53;4993182;28;20485;-80
2023/04/02 07:45:37;;;;;;;2.70;1.50;;;;;;;5.32;76.46;100273.38;4993536;28;20050;-77
2023/04/02 07:48:05;;;;;;;5.70;1.40;;;;;;;5.32;75.85;100275.09;4994234;28;20054;-80
2023/04/02 07:50:32;;;;;;;3.35;1.35;;;;;;;5.33;76.39;100272.47;4994363;28;20058;-78
2023/04/02 07:53:00;;;;;;;3.38;1.67;;;;;;;5.33;76.10;100276.81;4993965;28;20058;-77
2023/04/02 07:55:26;;;;;;;4.30;1.50;;;;;;;5.32;76.37;100275.97;4992579;28;20422;-77
2023/04/02 07:57:57;;;;;;;3.65;1.50;;;;;;;5.30;75.64;100282.09;4992760;28;20058;-78
2023/04/02 08:00:25;;;;;;;3.85;1.40;;;;;;;5.31;76.54;100289.06;4993526;28;20085;-77
2023/04/02 08:02:53;;;;;;;5.05;2.22;;;;;;;5.32;76.79;100289.03;4993088;28;20104;-77
2023/04/02 08:05:19;;;;;;;3.75;1.65;;;;;;;5.37;76.80;100293.25;4992632;28;20054;-77
2023/04/02 08:07:54;;;;;;;4.75;1.42;;;;;;;5.39;74.49;100302.78;4992536;28;20082;-78
2023/04/02 08:10:21;;;;;;;6.57;1.70;;;;;;;5.44;77.23;100298.28;4990626;28;20061;-79
2023/04/02 08:12:48;;;;;;;4.57;1.77;;;;;;;5.51;77.32;100305.94;4993060;28;20046;-80
2023/04/02 08:15:15;;;;;;;4.40;1.55;;;;;;;5.55;76.97;100313.66;4993267;28;20058;-81
2023/04/02 08:17:44;;;;;;;5.85;1.38;;;;;;;5.58;76.20;100313.56;4992173;28;20058;-80
2023/04/02 08:20:18;;;;;;;5.95;1.55;;;;;;;5.61;75.45;100318.69;4995329;28;20046;-79
2023/04/02 08:22:45;;;;;;;4.90;1.50;;;;;;;5.66;76.12;100330.78;5002771;28;20049;-79
2023/04/02 08:25:12;;;;;;;4.15;1.60;;;;;;;5.68;76.65;100332.44;4993015;28;20073;-79
2023/04/02 08:27:39;;;;;;;3.97;1.70;;;;;;;5.69;76.90;100352.44;4992661;28;20062;-79
2023/04/02 08:30:07;;;;;;;5.22;1.50;;;;;;;5.72;76.38;100343.69;4993298;28;20050;-77
2023/04/02 08:32:34;;;;;;;3.75;1.58;;;;;;;5.78;76.73;100358.31;4993109;28;20456;-80
2023/04/02 08:35:01;;;;;;;4.95;2.08;;;;;;;5.81;76.73;100351.25;4992853;28;20058;-81
2023/04/02 08:37:28;;;;;;;4.80;1.52;;;;;;;5.86;76.92;100357.22;4979698;28;20065;-80
2023/04/02 08:39:54;;;;;;;4.45;1.45;;;;;;;5.93;76.89;100359.63;4992948;28;20058;-80
2023/04/02 08:42:54;;;;;;;6.18;1.50;;;;;;;5.96;73.78;100363.03;5007969;28;20451;-79
2023/04/02 08:45:45;;;;;;;4.78;1.70;;;;;;;6.04;74.39;100362.84;4992669;28;20149;-78
2023/04/02 08:48:14;;;;;;;2.75;1.00;;;;;;;6.11;76.04;100369.63;4992887;28;20066;-77
2023/04/02 08:50:42;;;;;;;3.90;1.40;;;;;;;6.18;76.33;100372.06;4993050;28;20454;-80
2023/04/02 08:53:11;;;;;;;5.00;1.75;;;;;;;6.25;75.90;100371.00;4992968;28;20054;-80
2023/04/02 08:55:56;;;;;;;4.93;1.50;;;;;;;6.32;76.44;100377.72;4992903;28;20082;-79
2023/04/02 08:58:37;;;;;;;4.03;1.50;;;;;;;6.41;75.42;100378.38;4990932;28;20050;-78
2023/04/02 09:01:06;;;;;;;3.60;1.55;;;;;;;6.51;77.25;100383.28;5008100;28;20058;-77
2023/04/02 09:03:38;;;;;;;5.05;1.48;;;;;;;6.58;76.20;100386.56;4992810;28;20054;-79
2023/04/02 09:06:09;;;;;;;5.15;1.63;;;;;;;6.67;76.00;100388.06;4992515;28;20054;-79
2023/04/02 09:08:35;;;;;;;3.38;1.35;;;;;;;6.71;76.30;100397.53;4992534;28;20149;-80
2023/04/02 09:11:20;;;;;;;4.40;1.38;;;;;;;6.71;72.43;100388.81;4993056;28;20053;-77
2023/04/02 09:13:53;;;;;;;3.25;1.50;;;;;;;6.73;73.56;100398.31;4992567;28;20058;-77
2023/04/02 09:16:32;;;;;;;8.10;1.60;;;;;;;6.72;72.90;100409.69;4992485;28;20054;-79
2023/04/02 09:19:00;;;;;;;2.47;1.27;;;;;;;6.71;75.31;100418.47;4992197;28;20141;-79
2023/04/02 09:21:36;;;;;;;3.55;1.48;;;;;;;6.67;72.91;100422.06;4991507;28;20054;-78
2023/04/02 09:24:03;;;;;;;3.22;1.33;;;;;;;6.65;74.78;100422.09;4991050;28;20597;-79
2023/04/02 09:26:32;;;;;;;4.28;1.23;;;;;;;6.63;74.91;100431.78;4992261;28;20054;-79
2023/04/02 09:29:11;;;;;;;4.65;1.30;;;;;;;6.58;71.72;100428.41;4992180;28;20062;-77
2023/04/02 09:31:42;;;;;;;3.95;1.50;;;;;;;6.59;73.74;100437.13;4992454;28;20058;-77
2023/04/02 09:34:34;;;;;;;5.85;1.40;;;;;;;6.50;71.23;100439.13;4991021;28;20136;-80
2023/04/02 09:37:18;;;;;;;5.38;1.88;;;;;;;6.50;71.74;100446.09;4991966;28;20061;-79
2023/04/02 09:39:45;;;;;;;3.33;1.30;;;;;;;6.54;74.92;100450.34;4997508;28;20049;-79
2023/04/02 09:42:40;;;;;;;4.32;1.50;;;;;;;6.49;71.32;100453.09;4997981;28;20093;-80
2023/04/02 09:48:23;;;;;;;4.18;1.70;;;;;;;6.58;73.95;100454.56;4924589;29;20092;-81
2023/04/02 09:51:01;;;;;;;4.53;1.83;;;;;;;6.70;77.62;100458.63;4914937;29;20052;-81
2023/04/02 09:53:39;;;;;;;5.63;1.70;;;;;;;6.83;77.64;100451.25;4920506;29;20060;-81
2023/04/02 09:56:09;;;;;;;3.25;1.60;;;;;;;6.99;78.50;100458.63;4933530;28;20062;-81
2023/04/02 09:58:36;;;;;;;4.05;1.63;;;;;;;7.13;78.17;100464.28;4950776;28;20062;-82
2023/04/02 10:01:03;;;;;;;5.28;1.70;;;;;;;7.27;77.51;100460.38;4952409;28;20510;-81
2023/04/02 10:03:33;;;;;;;7.43;2.08;;;;;;;7.39;75.42;100470.47;4934990;28;20061;-82
2023/04/02 10:06:06;;;;;;;3.38;1.45;;;;;;;7.52;73.71;100470.06;4943349;29;20486;-82
2023/04/02 10:08:34;;;;;;;2.28;1.45;;;;;;;7.65;76.42;100479.22;4932482;29;20158;-82
2023/04/02 10:11:06;;;;;;;5.50;1.50;;;;;;;7.72;74.83;100479.88;4932670;29;20056;-82
2023/04/02 10:13:59;;;;;;;3.60;1.23;;;;;;;7.77;73.01;100484.94;4944593;28;20051;-82
2023/04/02 10:16:31;;;;;;;;;;;;;;;7.89;73.04;100489.78;4922060;29;20059;-82
2023/04/02 10:19:12;;;;;;;4.15;1.20;;;;;;;8.04;77.44;100490.19;4944002;28;19934;-82
2023/04/02 10:21:41;;;;;;;2.10;1.27;;;;;;;8.12;76.08;100505.66;4941435;29;20437;-81
2023/04/02 10:24:16;;;;;;;4.30;1.35;;;;;;;8.17;72.34;100504.59;4945516;29;20058;-82
2023/04/02 10:26:51;;;;;;;3.33;1.10;;;;;;;8.26;72.03;100515.66;4950013;28;20098;-82
2023/04/02 10:29:33;;;;;;;3.40;1.20;;;;;;;8.29;73.28;100516.41;4950865;28;20058;-81
2023/04/02 10:32:13;;;;;;;4.00;1.48;;;;;;;8.37;73.27;100525.78;4951827;28;20058;-81
2023/04/02 10:34:42;;;;;;;7.47;1.60;;;;;;;8.50;77.04;100528.81;4951541;28;20059;-81
2023/04/02 10:37:33;;;;;;;7.25;1.90;;;;;;;8.58;73.92;100530.28;4951476;28;20058;-82
2023/04/02 10:40:11;;;;;;;3.92;1.60;;;;;;;8.78;77.37;100531.31;4951816;28;20061;-81
2023/04/02 10:42:51;;;;;;;3.47;1.52;;;;;;;8.98;74.85;100533.19;4934892;29;20061;-81
2023/04/02 10:45:44;;;;;;;2.00;1.23;;;;;;;9.19;72.57;100543.78;4951251;28;20532;-82
2023/04/02 10:48:27;;;;;;;3.50;1.27;;;;;;;9.37;72.21;100544.00;4915228;28;20137;-82
2023/04/02 10:51:00;;;;;;;4.97;1.17;;;;;;;9.49;72.51;100543.50;4944895;28;20054;-82
2023/04/02 10:53:41;;;;;;;5.72;1.83;;;;;;;9.58;70.23;100547.56;4928844;29;20067;-82
2023/04/02 10:56:11;;;;;;;2.95;1.30;;;;;;;9.65;71.51;100545.53;4939092;28;20417;-82
2023/04/02 10:58:47;;;;;;;2.33;1.25;;;;;;;9.70;71.50;100546.19;4930768;29;20058;-82
2023/04/02 11:01:19;;;;;;;4.07;1.60;;;;;;;9.81;74.34;100555.41;4931059;29;20055;-82
2023/04/02 11:03:53;;;;;;;3.40;1.30;;;;;;;9.94;73.99;100564.50;4935870;29;20146;-82
2023/04/02 11:06:29;;;;;;;3.75;1.45;;;;;;;10.08;74.64;100555.19;4928355;29;20051;-82
2023/04/02 11:09:00;;;;;;;3.72;1.40;;;;;;;10.27;75.49;100557.88;4939894;29;20062;-82
2023/04/02 11:11:33;;;;;;;2.72;1.40;;;;;;;10.46;74.06;100554.50;4947617;29;20153;-82
2023/04/02 11:14:04;;;;;;;3.45;1.20;;;;;;;10.62;74.23;100558.16;4938416;29;20059;-82
2023/04/02 11:16:32;;;;;;;1.90;1.25;;;;;;;10.84;78.25;100559.00;4937699;28;20070;-82
2023/04/02 11:19:15;;;;;;;6.60;1.35;;;;;;;11.19;75.33;100559.16;4948800;28;20148;-82
2023/04/02 11:21:50;;;;;;;5.32;1.48;;;;;;;11.68;83.65;100558.59;4940568;29;20730;-82
2023/04/02 11:24:38;;;;;;;4.65;1.85;;;;;;;12.30;80.57;100561.75;4939995;29;20134;-82
2023/04/02 11:27:05;;;;;;;2.85;1.40;;;;;;;12.95;85.30;100557.50;4944468;28;20067;-82
2023/04/02 11:29:33;;;;;;;3.97;1.80;;;;;;;13.60;85.25;100569.81;4939045;29;20051;-82
2023/04/02 11:32:26;;;;;;;3.58;1.42;;;;;;;14.27;72.72;100575.72;4936089;29;20067;-82
2023/04/02 11:34:53;;;;;;;5.38;1.33;;;;;;;14.92;80.42;100573.63;4934547;29;20063;-83
2023/04/02 11:37:37;;;;;;;2.55;1.15;;;;;;;15.48;73.24;100583.41;4934346;29;20513;-82
2023/04/02 11:40:09;;;;;;;3.78;1.40;;;;;;;15.93;68.44;100582.28;4934742;29;20070;-83
2023/04/02 11:42:39;;;;;;;3.58;1.33;;;;;;;16.31;72.63;100589.50;4935852;29;20059;-83
2023/04/02 11:45:25;;;;;;;4.35;1.17;;;;;;;16.56;64.61;100586.97;4934168;29;20059;-82
2023/04/02 11:48:00;;;;;;;3.97;1.40;;;;;;;16.85;64.45;100584.94;4934120;29;20511;-83
2023/04/02 11:50:34;;;;;;;5.38;1.17;;;;;;;17.14;68.44;100590.03;4936254;28;20051;-83
2023/04/02 11:53:19;;;;;;;2.33;1.30;;;;;;;17.45;64.24;100598.47;4931334;29;20056;-83
2023/04/02 11:56:15;;;;;;;2.15;0.93;;;;;;;17.84;62.48;100595.63;4947316;28;20051;-82
2023/04/02 11:59:03;;;;;;;1.65;0.93;;;;;;;18.23;64.62;100594.59;4915927;29;20052;-82
2023/04/02 12:01:49;;;;;;;1.80;0.90;;;;;;;18.51;62.43;100608.47;4899776;29;20063;-83
2023/04/02 12:04:31;;;;;;;3.10;1.15;;;;;;;18.75;66.37;100607.53;4916149;29;20060;-82
2023/04/02 12:07:06;;;;;;;3.03;1.27;;;;;;;18.97;58.16;100606.69;4916027;29;20052;-83
2023/04/02 12:09:43;;;;;;;2.13;1.20;;;;;;;19.29;67.05;100605.13;4913683;29;20058;-82
2023/04/02 12:12:26;;;;;;;2.78;1.20;;;;;;;19.61;59.74;100619.50;4935297;29;20111;-82
2023/04/02 12:14:57;;;;;;;3.97;1.08;;;;;;;19.97;59.17;100624.59;4934840;29;20063;-82
2023/04/02 12:17:29;;;;;;;3.83;1.13;;;;;;;20.18;56.57;100617.50;4934403;29;20147;-82